createdAt,value
2022-12-12T00:00:08.618Z,28.30
2022-12-12T00:01:09.315Z,29.40
2022-12-12T00:02:08.603Z,28.20
2022-12-12T00:03:08.694Z,28.80
2022-12-12T00:04:08.622Z,29.00
2022-12-12T00:05:14.646Z,29.70
2022-12-12T00:06:10.244Z,28.80
2022-12-12T00:07:08.537Z,31.10
2022-12-12T00:08:08.566Z,30.80
2022-12-12T00:09:08.522Z,30.30
2022-12-12T00:10:10.049Z,32.50
2022-12-12T00:11:09.051Z,32.80
2022-12-12T00:12:08.476Z,32.70
2022-12-12T00:13:08.536Z,33.40
2022-12-12T00:14:09.281Z,34.70
2022-12-12T00:15:08.405Z,33.50
2022-12-12T00:16:08.532Z,34.00
2022-12-12T00:17:09.061Z,32.80
2022-12-12T00:18:08.549Z,33.80
2022-12-12T00:19:08.453Z,32.80
2022-12-12T00:20:08.457Z,33.60
2022-12-12T00:21:08.402Z,31.80
2022-12-12T00:22:08.343Z,31.80
2022-12-12T00:23:08.415Z,31.10
2022-12-12T00:24:08.448Z,31.00
2022-12-12T00:25:08.338Z,31.50
2022-12-12T00:26:08.303Z,30.30
2022-12-12T00:27:10.050Z,30.40
2022-12-12T00:28:08.456Z,31.20
2022-12-12T00:29:08.362Z,31.90
2022-12-12T00:30:08.364Z,31.60
2022-12-12T00:31:08.574Z,30.00
2022-12-12T00:32:08.329Z,31.00
2022-12-12T00:33:08.371Z,30.60
2022-12-12T00:34:09.052Z,32.10
2022-12-12T00:35:08.348Z,31.40
2022-12-12T00:36:08.425Z,30.00
2022-12-12T00:37:08.282Z,31.70
2022-12-12T00:38:08.326Z,31.50
2022-12-12T00:39:09.769Z,32.10
2022-12-12T00:40:10.142Z,31.00
2022-12-12T00:41:08.331Z,31.10
2022-12-12T00:42:08.303Z,31.00
2022-12-12T00:43:08.418Z,30.60
2022-12-12T00:44:09.449Z,30.70
2022-12-12T00:45:08.283Z,31.00
2022-12-12T00:46:08.310Z,32.10
2022-12-12T00:47:08.238Z,31.10
2022-12-12T00:48:08.189Z,31.50
2022-12-12T00:49:08.243Z,31.40
2022-12-12T00:50:08.205Z,31.70
2022-12-12T00:51:08.222Z,32.10
2022-12-12T00:52:08.208Z,33.10
2022-12-12T00:53:08.230Z,32.60
2022-12-12T00:54:08.162Z,33.00
2022-12-12T00:55:08.200Z,32.80
2022-12-12T00:56:08.130Z,32.10
2022-12-12T00:57:08.247Z,33.30
2022-12-12T00:58:08.162Z,34.30
2022-12-12T00:59:08.153Z,34.60
2022-12-12T01:00:08.162Z,34.10
2022-12-12T01:01:08.070Z,35.00
2022-12-12T01:02:08.155Z,34.20
2022-12-12T01:03:08.189Z,34.30
2022-12-12T01:04:08.247Z,33.90
2022-12-12T01:05:08.120Z,34.40
2022-12-12T01:06:08.051Z,34.80
2022-12-12T01:07:08.064Z,34.30
2022-12-12T01:08:08.057Z,35.00
2022-12-12T01:09:09.895Z,35.60
2022-12-12T01:10:08.105Z,34.50
2022-12-12T01:11:08.090Z,35.00
2022-12-12T01:12:08.031Z,34.40
2022-12-12T01:13:09.078Z,33.50
2022-12-12T01:14:08.019Z,38.90
2022-12-12T01:15:07.977Z,55.40
2022-12-12T01:16:08.031Z,90.60
2022-12-12T01:17:07.953Z,71.60
2022-12-12T01:18:08.031Z,59.40
2022-12-12T01:19:07.928Z,48.70
2022-12-12T01:20:07.967Z,44.20
2022-12-12T01:21:07.931Z,40.10
2022-12-12T01:22:07.981Z,38.60
2022-12-12T01:23:07.945Z,37.10
2022-12-12T01:24:07.918Z,36.40
2022-12-12T01:25:07.943Z,36.00
2022-12-12T01:26:08.074Z,34.10
2022-12-12T01:27:07.910Z,35.40
2022-12-12T01:28:07.947Z,34.40
2022-12-12T01:29:08.832Z,33.90
2022-12-12T01:30:07.935Z,34.80
2022-12-12T01:31:07.930Z,33.50
2022-12-12T01:32:07.858Z,33.00
2022-12-12T01:33:07.850Z,33.50
2022-12-12T01:34:07.836Z,33.50
2022-12-12T01:35:07.837Z,33.80
2022-12-12T01:36:07.800Z,33.70
2022-12-12T01:37:07.859Z,33.90
2022-12-12T01:38:07.801Z,34.40
2022-12-12T01:39:07.797Z,33.20
2022-12-12T01:40:07.815Z,34.80
2022-12-12T01:41:08.647Z,34.70
2022-12-12T01:42:09.559Z,33.30
2022-12-12T01:43:07.879Z,33.70
2022-12-12T01:44:07.746Z,33.00
2022-12-12T01:45:08.271Z,32.40
2022-12-12T01:46:08.383Z,34.00
2022-12-12T01:47:08.553Z,33.50
2022-12-12T01:48:07.747Z,34.20
2022-12-12T01:49:07.816Z,33.90
2022-12-12T01:50:07.693Z,34.90
2022-12-12T01:51:07.712Z,35.40
2022-12-12T01:52:07.773Z,35.40
2022-12-12T01:53:07.772Z,33.30
2022-12-12T01:54:07.703Z,35.90
2022-12-12T01:55:07.749Z,34.40
2022-12-12T01:56:07.691Z,35.70
2022-12-12T01:57:07.705Z,36.10
2022-12-12T01:58:07.737Z,36.50
2022-12-12T01:59:07.691Z,35.70
2022-12-12T02:00:07.647Z,34.50
2022-12-12T02:01:07.682Z,36.60
2022-12-12T02:02:08.620Z,36.60
2022-12-12T02:03:07.670Z,36.50
2022-12-12T02:04:07.654Z,36.40
2022-12-12T02:05:07.640Z,34.00
2022-12-12T02:06:07.649Z,34.50
2022-12-12T02:07:07.683Z,33.50
2022-12-12T02:08:07.709Z,33.30
2022-12-12T02:09:07.612Z,33.50
2022-12-12T02:10:07.637Z,34.90
2022-12-12T02:11:07.583Z,34.10
2022-12-12T02:12:07.660Z,34.70
2022-12-12T02:13:07.579Z,35.00
2022-12-12T02:14:07.581Z,34.70
2022-12-12T02:15:07.603Z,35.30
2022-12-12T02:16:07.628Z,34.30
2022-12-12T02:17:08.281Z,34.10
2022-12-12T02:18:12.366Z,34.80
2022-12-12T02:19:09.614Z,35.50
2022-12-12T02:20:07.521Z,34.70
2022-12-12T02:21:10.270Z,34.90
2022-12-12T02:22:08.307Z,34.60
2022-12-12T02:23:07.496Z,35.00
2022-12-12T02:24:07.433Z,35.20
2022-12-12T02:25:07.479Z,34.10
2022-12-12T02:26:07.503Z,34.00
2022-12-12T02:27:07.455Z,35.50
2022-12-12T02:28:07.538Z,35.70
2022-12-12T02:29:08.057Z,36.70
2022-12-12T02:30:07.485Z,38.60
2022-12-12T02:31:07.545Z,37.70
2022-12-12T02:32:07.431Z,35.30
2022-12-12T02:33:07.455Z,35.70
2022-12-12T02:34:07.476Z,35.30
2022-12-12T02:35:07.412Z,35.20
2022-12-12T02:36:08.349Z,37.30
2022-12-12T02:37:07.404Z,37.20
2022-12-12T02:38:07.442Z,38.50
2022-12-12T02:39:07.351Z,35.80
2022-12-12T02:40:07.454Z,38.10
2022-12-12T02:41:07.418Z,39.40
2022-12-12T02:42:07.408Z,38.80
2022-12-12T02:43:07.394Z,39.60
2022-12-12T02:44:07.312Z,36.90
2022-12-12T02:45:07.417Z,37.60
2022-12-12T02:46:07.323Z,37.80
2022-12-12T02:47:07.321Z,37.70
2022-12-12T02:48:07.303Z,37.10
2022-12-12T02:49:07.284Z,38.10
2022-12-12T02:50:08.357Z,38.60
2022-12-12T02:51:07.253Z,38.40
2022-12-12T02:52:07.442Z,37.40
2022-12-12T02:53:07.287Z,39.10
2022-12-12T02:54:07.230Z,37.90
2022-12-12T02:55:07.229Z,39.00
2022-12-12T02:56:07.192Z,40.70
2022-12-12T02:57:07.251Z,39.20
2022-12-12T02:58:07.364Z,40.00
2022-12-12T02:59:10.270Z,39.20
2022-12-12T03:00:07.198Z,39.00
2022-12-12T03:01:07.235Z,38.40
2022-12-12T03:02:07.247Z,38.70
2022-12-12T03:03:07.226Z,39.40
2022-12-12T03:04:07.169Z,38.60
2022-12-12T03:05:07.817Z,38.10
2022-12-12T03:06:07.192Z,39.00
2022-12-12T03:07:07.180Z,37.90
2022-12-12T03:08:07.970Z,37.80
2022-12-12T03:09:07.124Z,38.10
2022-12-12T03:10:07.150Z,34.50
2022-12-12T03:11:07.124Z,31.50
2022-12-12T03:12:07.123Z,32.60
2022-12-12T03:13:07.142Z,31.70
2022-12-12T03:14:07.124Z,30.80
2022-12-12T03:15:07.152Z,29.40
2022-12-12T03:16:07.071Z,29.70
2022-12-12T03:17:07.055Z,29.60
2022-12-12T03:18:07.114Z,28.90
2022-12-12T03:19:07.022Z,28.20
2022-12-12T03:20:07.224Z,27.80
2022-12-12T03:21:07.038Z,27.50
2022-12-12T03:22:38.927Z,26.40
2022-12-12T03:23:06.965Z,27.80
2022-12-12T03:24:06.966Z,25.90
2022-12-12T03:25:06.961Z,27.20
2022-12-12T03:26:38.864Z,25.50
2022-12-12T03:27:06.940Z,26.60
2022-12-12T03:28:06.983Z,24.90
2022-12-12T03:29:07.773Z,23.60
2022-12-12T03:30:06.979Z,22.00
2022-12-12T03:31:07.090Z,23.20
2022-12-12T03:32:06.922Z,23.50
2022-12-12T03:33:06.886Z,23.30
2022-12-12T03:34:06.895Z,23.90
2022-12-12T03:35:06.878Z,24.40
2022-12-12T03:36:06.895Z,23.20
2022-12-12T03:37:06.871Z,23.50
2022-12-12T03:38:06.865Z,22.50
2022-12-12T03:39:06.866Z,24.20
2022-12-12T03:40:06.865Z,23.80
2022-12-12T03:41:06.866Z,23.20
2022-12-12T03:42:06.853Z,23.60
2022-12-12T03:43:06.851Z,23.30
2022-12-12T03:44:06.805Z,23.00
2022-12-12T03:45:06.808Z,23.90
2022-12-12T03:46:06.859Z,22.40
2022-12-12T03:47:06.798Z,23.40
2022-12-12T04:03:02.605Z,16.00
2022-12-12T04:04:02.591Z,19.20
2022-12-12T04:05:02.565Z,22.40
2022-12-12T04:06:02.574Z,24.50
2022-12-12T04:07:02.581Z,24.20
2022-12-12T04:08:02.603Z,26.80
2022-12-12T04:09:03.681Z,25.30
2022-12-12T04:10:03.771Z,26.60
2022-12-12T04:11:03.631Z,25.50
2022-12-12T04:12:03.646Z,26.80
2022-12-12T04:13:03.694Z,26.50
2022-12-12T04:14:03.681Z,27.30
2022-12-12T04:15:03.627Z,27.30
2022-12-12T04:16:03.644Z,26.60
2022-12-12T04:17:03.628Z,26.60
2022-12-12T04:18:03.609Z,25.90
2022-12-12T04:19:03.777Z,25.20
2022-12-12T04:20:03.630Z,25.40
2022-12-12T04:21:03.585Z,26.70
2022-12-12T04:22:03.573Z,26.80
2022-12-12T04:23:03.582Z,26.80
2022-12-12T04:24:03.555Z,26.80
2022-12-12T04:25:03.563Z,26.30
2022-12-12T04:26:03.550Z,26.70
2022-12-12T04:27:03.560Z,24.70
2022-12-12T04:28:03.565Z,26.10
2022-12-12T04:29:03.559Z,26.20
2022-12-12T04:30:03.521Z,25.30
2022-12-12T04:31:03.512Z,26.30
2022-12-12T04:32:03.570Z,26.50
2022-12-12T04:33:03.539Z,27.00
2022-12-12T04:34:03.493Z,27.70
2022-12-12T04:35:03.475Z,27.40
2022-12-12T04:36:03.472Z,27.00
2022-12-12T04:37:03.480Z,27.60
2022-12-12T04:38:03.515Z,27.40
2022-12-12T04:39:03.453Z,26.80
2022-12-12T04:40:03.471Z,27.50
2022-12-12T04:41:03.470Z,28.10
2022-12-12T04:42:03.444Z,27.00
2022-12-12T04:43:03.486Z,26.60
2022-12-12T04:44:03.432Z,26.20
2022-12-12T04:45:03.434Z,27.40
2022-12-12T04:46:03.447Z,27.30
2022-12-12T04:47:03.427Z,27.90
2022-12-12T04:48:03.408Z,26.50
2022-12-12T04:49:03.395Z,27.20
2022-12-12T04:50:03.429Z,26.10
2022-12-12T04:51:03.364Z,26.90
2022-12-12T04:52:03.361Z,27.20
2022-12-12T04:53:03.356Z,26.90
2022-12-12T04:54:03.339Z,26.30
2022-12-12T04:55:03.368Z,26.00
2022-12-12T04:56:03.355Z,25.50
2022-12-12T04:57:03.334Z,26.20
2022-12-12T04:58:03.330Z,27.00
2022-12-12T04:59:03.348Z,26.40
2022-12-12T05:00:03.315Z,26.40
2022-12-12T05:01:03.372Z,27.20
2022-12-12T05:02:03.332Z,25.80
2022-12-12T05:03:03.293Z,25.90
2022-12-12T05:04:03.304Z,25.10
2022-12-12T05:05:03.261Z,26.30
2022-12-12T05:06:03.274Z,25.40
2022-12-12T05:07:03.270Z,25.30
2022-12-12T05:08:03.310Z,25.20
2022-12-12T05:09:03.248Z,24.90
2022-12-12T05:10:03.316Z,25.50
2022-12-12T05:11:03.223Z,27.10
2022-12-12T05:12:03.929Z,28.60
2022-12-12T05:13:03.237Z,27.40
2022-12-12T05:14:03.218Z,27.60
2022-12-12T05:15:03.214Z,27.10
2022-12-12T05:16:03.214Z,26.90
2022-12-12T05:17:03.252Z,25.60
2022-12-12T05:18:03.169Z,30.00
2022-12-12T05:19:03.173Z,28.90
2022-12-12T05:20:03.160Z,29.70
2022-12-12T05:21:03.252Z,29.00
2022-12-12T05:22:03.140Z,29.50
2022-12-12T05:23:03.138Z,29.10
2022-12-12T05:24:03.143Z,27.40
2022-12-12T05:25:03.147Z,27.00
2022-12-12T05:26:03.157Z,27.70
2022-12-12T05:27:03.121Z,27.50
2022-12-12T05:28:03.098Z,26.60
2022-12-12T05:29:07.239Z,27.00
2022-12-12T05:30:04.112Z,25.90
2022-12-12T05:31:03.142Z,26.00
2022-12-12T05:32:03.074Z,26.20
2022-12-12T05:33:03.067Z,25.40
2022-12-12T05:34:03.121Z,24.90
2022-12-12T05:35:03.049Z,26.40
2022-12-12T05:36:03.042Z,25.90
2022-12-12T05:37:03.064Z,29.30
2022-12-12T05:38:03.035Z,29.50
2022-12-12T05:39:03.014Z,28.50
2022-12-12T05:40:03.018Z,30.70
2022-12-12T05:41:03.003Z,30.10
2022-12-12T05:42:04.284Z,31.70
2022-12-12T05:43:03.015Z,30.50
2022-12-12T05:44:02.989Z,31.00
2022-12-12T05:45:04.647Z,31.70
2022-12-12T05:46:03.037Z,30.40
2022-12-12T05:47:02.989Z,31.10
2022-12-12T05:48:02.993Z,29.70
2022-12-12T05:49:02.975Z,27.80
2022-12-12T05:50:02.960Z,28.00
2022-12-12T05:51:02.952Z,27.80
2022-12-12T05:52:02.958Z,28.00
2022-12-12T05:53:02.943Z,28.20
2022-12-12T05:54:02.929Z,28.50
2022-12-12T05:55:02.951Z,27.90
2022-12-12T05:56:02.928Z,27.70
2022-12-12T05:57:02.951Z,26.20
2022-12-12T05:58:02.926Z,27.10
2022-12-12T05:59:02.936Z,26.50
2022-12-12T06:00:02.893Z,25.70
2022-12-12T06:01:03.437Z,26.10
2022-12-12T06:02:03.912Z,25.00
2022-12-12T06:03:02.897Z,26.30
2022-12-12T06:04:02.891Z,27.10
2022-12-12T06:05:02.869Z,27.10
2022-12-12T06:06:02.836Z,26.90
2022-12-12T06:07:02.831Z,26.40
2022-12-12T06:08:02.845Z,25.90
2022-12-12T06:09:02.814Z,27.30
2022-12-12T06:10:02.825Z,26.70
2022-12-12T06:11:02.827Z,26.30
2022-12-12T06:12:02.784Z,26.20
2022-12-12T06:13:02.784Z,26.90
2022-12-12T06:14:02.782Z,28.60
2022-12-12T06:15:02.779Z,28.00
2022-12-12T06:16:02.837Z,28.70
2022-12-12T06:17:02.791Z,28.40
2022-12-12T06:18:02.758Z,28.50
2022-12-12T06:19:02.835Z,27.60
2022-12-12T06:20:02.756Z,28.70
2022-12-12T06:21:02.735Z,27.90
2022-12-12T06:22:02.744Z,28.40
2022-12-12T06:23:02.699Z,27.80
2022-12-12T06:24:02.690Z,27.90
2022-12-12T06:25:03.729Z,28.50
2022-12-12T06:26:02.739Z,27.80
2022-12-12T06:27:02.686Z,26.00
2022-12-12T06:28:02.692Z,26.50
2022-12-12T06:29:02.667Z,26.00
2022-12-12T06:30:02.656Z,26.10
2022-12-12T06:31:04.502Z,26.90
2022-12-12T06:32:03.659Z,26.70
2022-12-12T06:33:02.655Z,25.70
2022-12-12T06:34:02.628Z,25.90
2022-12-12T06:35:02.673Z,25.50
2022-12-12T06:36:02.616Z,27.30
2022-12-12T06:37:02.619Z,25.90
2022-12-12T06:38:02.623Z,27.50
2022-12-12T06:39:02.610Z,30.00
2022-12-12T06:40:02.673Z,29.60
2022-12-12T06:41:02.573Z,29.30
2022-12-12T06:42:02.581Z,28.10
2022-12-12T06:43:02.580Z,28.70
2022-12-12T06:44:02.562Z,27.60
2022-12-12T06:45:02.594Z,26.60
2022-12-12T06:46:02.566Z,26.90
2022-12-12T06:47:02.548Z,26.80
2022-12-12T06:48:02.536Z,26.70
2022-12-12T06:49:02.522Z,27.40
2022-12-12T06:50:02.540Z,27.20
2022-12-12T06:51:02.511Z,26.10
2022-12-12T06:52:02.636Z,27.50
2022-12-12T06:53:02.523Z,28.30
2022-12-12T06:54:02.497Z,28.70
2022-12-12T06:55:02.507Z,29.00
2022-12-12T06:56:02.474Z,28.70
2022-12-12T06:57:02.472Z,28.70
2022-12-12T06:58:02.484Z,27.70
2022-12-12T06:59:02.491Z,28.40
2022-12-12T07:00:02.455Z,26.20
2022-12-12T07:01:02.444Z,26.80
2022-12-12T07:02:02.475Z,26.10
2022-12-12T07:03:05.805Z,27.70
2022-12-12T07:04:02.441Z,26.50
2022-12-12T07:05:02.410Z,30.80
2022-12-12T07:06:02.391Z,27.50
2022-12-12T07:07:02.400Z,27.60
2022-12-12T07:08:02.451Z,26.40
2022-12-12T07:09:02.413Z,27.00
2022-12-12T07:10:02.393Z,25.20
2022-12-12T07:11:02.364Z,24.70
2022-12-12T07:12:02.390Z,23.80
2022-12-12T07:13:02.360Z,23.90
2022-12-12T07:14:02.337Z,23.40
2022-12-12T07:15:02.383Z,22.20
2022-12-12T07:16:02.397Z,22.30
2022-12-12T07:17:02.309Z,23.40
2022-12-12T07:18:02.325Z,24.90
2022-12-12T07:19:02.304Z,25.70
2022-12-12T07:20:02.315Z,26.80
2022-12-12T07:21:02.341Z,28.50
2022-12-12T07:22:09.123Z,27.20
2022-12-12T07:23:04.274Z,26.20
2022-12-12T07:24:02.279Z,27.80
2022-12-12T07:25:03.255Z,25.90
2022-12-12T07:26:02.270Z,24.20
2022-12-12T07:27:02.306Z,23.30
2022-12-12T07:28:02.277Z,23.70
2022-12-12T07:29:02.239Z,24.70
2022-12-12T07:30:02.235Z,24.00
2022-12-12T07:31:02.333Z,23.70
2022-12-12T07:32:02.207Z,23.10
2022-12-12T07:33:02.261Z,22.10
2022-12-12T07:34:02.189Z,23.10
2022-12-12T07:35:02.177Z,22.10
2022-12-12T07:36:02.193Z,22.70
2022-12-12T07:37:03.323Z,22.60
2022-12-12T07:38:03.180Z,22.90
2022-12-12T07:39:02.177Z,22.20
2022-12-12T07:40:02.176Z,21.90
2022-12-12T07:41:02.152Z,23.00
2022-12-12T07:42:02.146Z,23.10
2022-12-12T07:43:02.173Z,23.40
2022-12-12T07:44:02.222Z,22.30
2022-12-12T07:45:02.148Z,22.30
2022-12-12T07:46:02.238Z,23.10
2022-12-12T07:47:02.139Z,22.50
2022-12-12T07:48:02.128Z,23.70
2022-12-12T07:49:02.171Z,28.10
2022-12-12T07:50:02.181Z,30.80
2022-12-12T07:51:02.107Z,34.20
2022-12-12T07:52:02.103Z,33.70
2022-12-12T07:53:02.076Z,33.60
2022-12-12T07:54:02.079Z,33.00
2022-12-12T07:55:02.041Z,29.80
2022-12-12T07:56:02.040Z,24.00
2022-12-12T07:57:02.035Z,23.90
2022-12-12T07:58:02.045Z,27.10
2022-12-12T07:59:02.723Z,28.50
2022-12-12T08:00:02.037Z,28.90
2022-12-12T08:01:02.023Z,31.40
2022-12-12T08:02:02.169Z,28.30
2022-12-12T08:03:02.019Z,26.40
2022-12-12T08:04:02.058Z,24.70
2022-12-12T08:05:02.086Z,25.90
2022-12-12T08:06:02.038Z,27.10
2022-12-12T08:07:06.831Z,29.90
2022-12-12T08:08:04.007Z,28.50
2022-12-12T08:09:01.993Z,28.70
2022-12-12T08:10:01.966Z,27.70
2022-12-12T08:11:01.968Z,28.40
2022-12-12T08:12:01.940Z,27.30
2022-12-12T08:13:01.953Z,26.50
2022-12-12T08:14:01.924Z,26.80
2022-12-12T08:15:01.915Z,27.60
2022-12-12T08:16:02.017Z,27.00
2022-12-12T08:17:01.942Z,26.70
2022-12-12T08:18:01.954Z,26.80
2022-12-12T08:19:01.906Z,26.40
2022-12-12T08:20:01.873Z,28.50
2022-12-12T08:21:01.897Z,26.50
2022-12-12T08:22:01.867Z,28.10
2022-12-12T08:23:01.935Z,26.90
2022-12-12T08:24:01.862Z,29.60
2022-12-12T08:25:01.835Z,31.30
2022-12-12T08:26:01.883Z,30.30
2022-12-12T08:27:01.863Z,28.20
2022-12-12T08:28:01.867Z,27.10
2022-12-12T08:29:01.827Z,27.50
2022-12-12T08:30:01.878Z,27.40
2022-12-12T08:31:01.895Z,28.20
2022-12-12T08:32:03.730Z,29.00
2022-12-12T08:33:06.567Z,29.10
2022-12-12T08:34:03.799Z,29.30
2022-12-12T08:35:01.842Z,29.20
2022-12-12T08:36:01.776Z,29.70
2022-12-12T08:37:01.780Z,27.70
2022-12-12T08:38:01.750Z,26.30
2022-12-12T08:39:01.776Z,26.60
2022-12-12T08:40:01.771Z,25.30
2022-12-12T08:41:01.725Z,26.40
2022-12-12T08:42:01.719Z,25.30
2022-12-12T08:43:01.755Z,27.60
2022-12-12T08:44:01.712Z,26.50
2022-12-12T08:45:01.742Z,26.60
2022-12-12T08:46:01.754Z,26.30
2022-12-12T08:47:01.818Z,25.50
2022-12-12T08:48:01.706Z,26.30
2022-12-12T08:49:01.691Z,25.70
2022-12-12T08:50:01.660Z,25.70
2022-12-12T08:51:02.357Z,26.30
2022-12-12T08:52:01.725Z,26.10
2022-12-12T08:53:01.678Z,24.70
2022-12-12T08:54:01.624Z,24.70
2022-12-12T08:55:01.626Z,24.90
2022-12-12T08:56:01.676Z,24.90
2022-12-12T08:57:01.627Z,25.60
2022-12-12T08:58:01.622Z,26.50
2022-12-12T08:59:01.611Z,27.20
2022-12-12T09:00:01.610Z,26.40
2022-12-12T09:01:01.585Z,26.40
2022-12-12T09:02:01.775Z,26.80
2022-12-12T09:03:01.599Z,25.70
2022-12-12T09:04:01.584Z,25.80
2022-12-12T09:05:01.599Z,24.90
2022-12-12T09:06:01.553Z,26.40
2022-12-12T09:07:08.077Z,24.90
2022-12-12T09:08:03.576Z,26.20
2022-12-12T09:09:01.527Z,26.90
2022-12-12T09:10:01.517Z,27.60
2022-12-12T09:11:01.518Z,26.00
2022-12-12T09:12:01.524Z,25.60
2022-12-12T09:13:01.543Z,26.20
2022-12-12T09:14:01.476Z,25.70
2022-12-12T09:15:01.479Z,26.80
2022-12-12T09:16:01.511Z,27.10
2022-12-12T09:17:01.502Z,27.20
2022-12-12T09:18:01.500Z,27.60
2022-12-12T09:19:01.467Z,27.60
2022-12-12T09:20:01.431Z,28.20
2022-12-12T09:21:01.456Z,28.30
2022-12-12T09:22:01.477Z,30.90
2022-12-12T09:23:01.452Z,29.10
2022-12-12T09:24:01.447Z,30.30
2022-12-12T09:25:01.409Z,29.00
2022-12-12T09:26:33.311Z,29.50
2022-12-12T09:27:01.407Z,27.60
2022-12-12T09:28:01.488Z,28.40
2022-12-12T09:30:58.880Z,28.40
2022-12-12T09:31:59.021Z,28.00
2022-12-12T09:32:58.867Z,28.20
2022-12-12T09:33:58.920Z,28.10
2022-12-12T09:34:58.882Z,26.40
2022-12-12T09:35:58.866Z,26.90
2022-12-12T09:36:58.858Z,27.80
2022-12-12T09:37:59.977Z,28.20
2022-12-12T09:38:59.963Z,30.90
2022-12-12T09:39:59.955Z,30.20
2022-12-12T09:40:59.985Z,29.30
2022-12-12T09:41:59.931Z,29.60
2022-12-12T09:42:59.966Z,28.50
2022-12-12T09:43:59.943Z,29.60
2022-12-12T09:44:59.916Z,29.90
2022-12-12T09:46:00.035Z,30.50
2022-12-12T09:46:59.942Z,30.00
2022-12-12T09:47:59.897Z,30.50
2022-12-12T09:48:59.903Z,28.90
2022-12-12T09:49:59.907Z,28.10
2022-12-12T09:50:59.898Z,28.70
2022-12-12T09:51:59.870Z,30.30
2022-12-12T09:52:59.871Z,30.20
2022-12-12T09:53:59.852Z,30.80
2022-12-12T09:54:59.841Z,30.50
2022-12-12T09:55:59.868Z,30.70
2022-12-12T09:56:59.853Z,31.50
2022-12-12T09:57:59.835Z,31.30
2022-12-12T09:58:59.846Z,29.20
2022-12-12T09:59:59.808Z,31.00
2022-12-12T10:00:59.848Z,29.10
2022-12-12T10:01:59.900Z,32.00
2022-12-12T10:03:00.579Z,28.80
2022-12-12T10:03:59.782Z,30.40
2022-12-12T10:04:59.803Z,29.80
2022-12-12T10:06:20.674Z,28.50
2022-12-12T10:07:01.771Z,33.40
2022-12-12T10:07:59.816Z,31.00
2022-12-12T10:09:00.598Z,30.80
2022-12-12T10:09:59.729Z,29.80
2022-12-12T10:10:59.734Z,31.60
2022-12-12T10:12:03.487Z,31.90
2022-12-12T10:13:00.722Z,32.00
2022-12-12T10:13:59.705Z,31.20
2022-12-12T10:14:59.712Z,30.50
2022-12-12T10:15:59.787Z,33.10
2022-12-12T10:16:59.784Z,34.20
2022-12-12T10:17:59.696Z,30.20
2022-12-12T10:19:00.519Z,31.50
2022-12-12T10:19:59.665Z,31.60
2022-12-12T10:20:59.676Z,32.50
2022-12-12T10:21:59.649Z,29.10
2022-12-12T10:22:59.658Z,30.80
2022-12-12T10:23:59.619Z,29.90
2022-12-12T10:24:59.632Z,30.10
2022-12-12T10:25:59.621Z,32.90
2022-12-12T10:26:59.612Z,36.40
2022-12-12T10:27:59.642Z,31.00
2022-12-12T10:28:59.589Z,29.10
2022-12-12T10:29:59.589Z,29.30
2022-12-12T10:30:59.599Z,28.40
2022-12-12T10:31:59.679Z,31.00
2022-12-12T10:33:00.236Z,30.40
2022-12-12T10:34:01.584Z,33.20
2022-12-12T10:34:59.525Z,30.50
2022-12-12T10:35:59.540Z,31.60
2022-12-12T10:36:59.563Z,32.80
2022-12-12T10:38:00.099Z,32.40
2022-12-12T10:38:59.513Z,29.50
2022-12-12T10:39:59.557Z,30.00
2022-12-12T10:40:59.482Z,33.20
2022-12-12T10:41:59.493Z,29.60
2022-12-12T10:42:59.502Z,30.20
2022-12-12T10:43:59.472Z,28.90
2022-12-12T10:44:59.470Z,31.40
2022-12-12T10:46:00.212Z,29.50
2022-12-12T10:46:59.615Z,30.30
2022-12-12T10:47:59.618Z,29.90
2022-12-12T10:48:59.462Z,25.80
2022-12-12T10:49:59.420Z,25.00
2022-12-12T10:50:59.465Z,25.60
2022-12-12T10:51:59.435Z,26.40
2022-12-12T10:52:59.428Z,28.70
2022-12-12T10:53:59.394Z,27.70
2022-12-12T10:54:59.463Z,28.50
2022-12-12T10:55:59.382Z,27.20
2022-12-12T10:57:00.031Z,27.80
2022-12-12T10:57:59.367Z,27.40
2022-12-12T10:58:59.442Z,26.60
2022-12-12T10:59:59.396Z,26.90
2022-12-12T11:00:59.456Z,28.30
2022-12-12T11:02:15.018Z,29.00
2022-12-12T11:03:01.417Z,28.60
2022-12-12T11:03:59.390Z,28.30
2022-12-12T11:04:59.370Z,29.30
2022-12-12T11:05:59.346Z,27.00
2022-12-12T11:06:59.377Z,27.60
2022-12-12T11:08:00.180Z,26.60
2022-12-12T11:08:59.287Z,27.50
2022-12-12T11:10:02.234Z,27.10
2022-12-12T11:11:00.382Z,26.90
2022-12-12T11:11:59.265Z,28.00
2022-12-12T11:12:59.263Z,26.60
2022-12-12T11:13:59.257Z,27.60
2022-12-12T11:14:59.274Z,23.30
2022-12-12T11:15:59.250Z,25.00
2022-12-12T11:16:59.287Z,26.20
2022-12-12T11:18:04.406Z,25.80
2022-12-12T11:19:01.218Z,26.50
2022-12-12T11:19:59.232Z,23.50
2022-12-12T11:20:59.201Z,23.30
2022-12-12T11:21:59.202Z,24.90
2022-12-12T11:22:59.192Z,25.00
2022-12-12T11:23:59.182Z,24.10
2022-12-12T11:24:59.182Z,26.00
2022-12-12T11:25:59.171Z,27.70
2022-12-12T11:26:59.185Z,23.80
2022-12-12T11:28:02.065Z,23.10
2022-12-12T11:29:01.196Z,24.00
2022-12-12T11:30:00.164Z,25.00
2022-12-12T11:30:59.147Z,25.70
2022-12-12T11:31:59.135Z,25.10
2022-12-12T11:32:59.140Z,25.20
2022-12-12T11:33:59.139Z,25.30
2022-12-12T11:34:59.143Z,25.80
2022-12-12T11:35:59.089Z,24.30
2022-12-12T11:36:59.133Z,25.50
2022-12-12T11:37:59.065Z,24.10
2022-12-12T11:38:59.060Z,25.00
2022-12-12T11:39:59.107Z,25.70
2022-12-12T11:40:59.052Z,25.50
2022-12-12T11:42:31.955Z,25.90
2022-12-12T11:43:00.532Z,25.60
2022-12-12T11:43:59.062Z,25.00
2022-12-12T11:44:59.052Z,26.00
2022-12-12T11:45:59.122Z,25.10
2022-12-12T11:46:59.664Z,24.70
2022-12-12T11:47:59.018Z,25.90
2022-12-12T11:48:59.055Z,25.30
2022-12-12T11:49:58.991Z,25.10
2022-12-12T11:50:59.047Z,24.10
2022-12-12T11:52:30.876Z,25.60
2022-12-12T11:52:58.971Z,25.50
2022-12-12T11:53:58.976Z,25.20
2022-12-12T11:54:58.966Z,25.40
2022-12-12T11:55:58.926Z,26.00
2022-12-12T11:56:58.963Z,26.20
2022-12-12T11:58:03.437Z,25.60
2022-12-12T11:59:00.923Z,25.50
2022-12-12T11:59:58.927Z,24.40
2022-12-12T12:01:30.930Z,24.60
2022-12-12T12:01:58.883Z,24.80
2022-12-12T12:02:59.021Z,23.80
2022-12-12T12:03:59.006Z,23.50
2022-12-12T12:04:58.945Z,24.20
2022-12-12T12:05:58.979Z,23.40
2022-12-12T12:06:58.875Z,24.00
2022-12-12T12:07:58.916Z,25.50
2022-12-12T12:08:58.849Z,24.40
2022-12-12T12:09:58.861Z,25.00
2022-12-12T12:10:58.816Z,24.90
2022-12-12T12:11:58.829Z,25.70
2022-12-12T12:12:58.827Z,26.50
2022-12-12T12:13:58.863Z,26.20
2022-12-12T12:14:58.811Z,25.00
2022-12-12T12:15:58.857Z,24.30
2022-12-12T12:16:58.850Z,24.60
2022-12-12T12:17:58.783Z,23.20
2022-12-12T12:18:58.777Z,24.20
2022-12-12T12:19:58.783Z,23.10
2022-12-12T12:20:58.785Z,23.30
2022-12-12T12:21:58.750Z,23.90
2022-12-12T12:22:58.782Z,22.20
2022-12-12T12:23:59.691Z,22.80
2022-12-12T12:24:58.760Z,22.40
2022-12-12T12:25:59.673Z,22.00
2022-12-12T12:26:58.732Z,21.60
2022-12-12T12:27:58.705Z,21.80
2022-12-12T12:28:58.715Z,23.10
2022-12-12T12:29:58.722Z,24.10
2022-12-12T12:30:58.779Z,21.90
2022-12-12T12:31:58.670Z,23.30
2022-12-12T12:32:58.687Z,23.70
2022-12-12T12:33:58.650Z,23.30
2022-12-12T12:34:58.639Z,21.40
2022-12-12T12:35:58.663Z,22.20
2022-12-12T12:36:58.665Z,23.00
2022-12-12T12:37:58.638Z,21.30
2022-12-12T12:38:58.614Z,21.00
2022-12-12T12:39:58.606Z,21.70
2022-12-12T12:40:58.681Z,21.10
2022-12-12T12:41:59.113Z,21.40
2022-12-12T12:42:58.599Z,20.90
2022-12-12T12:43:58.578Z,21.80
2022-12-12T12:44:59.744Z,19.90
2022-12-12T12:45:58.617Z,20.60
2022-12-12T12:46:58.555Z,21.60
2022-12-12T12:47:58.587Z,21.50
2022-12-12T12:48:58.585Z,21.80
2022-12-12T12:49:58.656Z,21.60
2022-12-12T12:50:58.554Z,21.00
2022-12-12T12:51:58.536Z,20.90
2022-12-12T12:52:58.510Z,21.00
2022-12-12T12:53:58.522Z,22.00
2022-12-12T12:54:58.563Z,21.00
2022-12-12T12:55:58.484Z,20.80
2022-12-12T12:56:58.475Z,21.90
2022-12-12T12:57:58.493Z,22.10
2022-12-12T12:58:58.487Z,22.00
2022-12-12T12:59:58.477Z,22.60
2022-12-12T13:00:58.499Z,21.10
2022-12-12T13:01:58.481Z,21.70
2022-12-12T13:02:58.548Z,22.60
2022-12-12T13:03:58.429Z,22.00
2022-12-12T13:04:58.405Z,22.30
2022-12-12T13:05:58.396Z,21.90
2022-12-12T13:06:59.462Z,22.80
2022-12-12T13:07:58.456Z,21.10
2022-12-12T13:08:58.398Z,22.40